createdAt,value
2022-09-21T00:00:41.234Z,6.70
2022-09-21T00:05:42.947Z,6.70
2022-09-21T00:10:49.849Z,5.90
2022-09-21T00:20:55.412Z,7.05
2022-09-21T00:26:18.419Z,7.32
2022-09-21T00:31:22.299Z,7.20
2022-09-21T00:36:24.994Z,7.45
2022-09-21T00:47:33.416Z,9.35
2022-09-21T00:52:39.900Z,8.40
2022-09-21T00:57:48.967Z,8.90
2022-09-21T01:03:00.861Z,8.93
2022-09-21T01:08:07.811Z,9.30
2022-09-21T01:18:31.906Z,8.82
2022-09-21T01:23:50.434Z,8.63
2022-09-21T01:29:09.854Z,9.82
2022-09-21T01:34:36.201Z,10.27
2022-09-21T01:39:54.908Z,10.20
2022-09-21T01:45:00.711Z,10.65
2022-09-21T01:50:05.281Z,10.00
2022-09-21T01:55:15.813Z,9.20
2022-09-21T02:00:17.552Z,10.27
2022-09-21T02:05:22.550Z,10.02
2022-09-21T02:10:39.866Z,9.30
2022-09-21T02:16:01.881Z,9.07
2022-09-21T02:21:17.813Z,9.73
2022-09-21T02:26:44.706Z,8.90
2022-09-21T02:31:53.855Z,10.00
2022-09-21T02:37:14.533Z,10.15
2022-09-21T02:42:21.935Z,10.80
2022-09-21T02:54:20.012Z,11.57
2022-09-21T02:59:21.645Z,9.48
2022-09-21T03:04:23.631Z,11.40
2022-09-21T03:09:25.165Z,11.13
2022-09-21T03:14:26.668Z,11.02
2022-09-21T03:19:28.219Z,10.98
2022-09-21T03:24:29.784Z,10.55
2022-09-21T03:29:31.296Z,14.38
2022-09-21T03:34:32.916Z,13.63
2022-09-21T03:39:34.851Z,11.45
2022-09-21T03:44:36.386Z,10.32
2022-09-21T03:49:37.927Z,9.75
2022-09-21T03:54:39.511Z,12.48
2022-09-21T03:59:41.265Z,12.70
2022-09-21T04:04:43.058Z,12.93
2022-09-21T04:09:44.587Z,16.70
2022-09-21T04:14:46.128Z,17.45
2022-09-21T04:19:47.676Z,16.67
2022-09-21T04:24:49.244Z,17.20
2022-09-21T04:29:50.859Z,17.20
2022-09-21T04:34:52.412Z,16.98
2022-09-21T04:39:54.042Z,17.95
2022-09-21T04:44:55.820Z,18.55
2022-09-21T04:49:57.423Z,19.10
2022-09-21T04:54:58.912Z,17.45
2022-09-21T05:00:00.615Z,19.13
2022-09-21T05:05:02.293Z,21.48
2022-09-21T05:10:04.308Z,19.67
2022-09-21T05:15:06.522Z,17.50
2022-09-21T05:20:08.408Z,16.83
2022-09-21T05:25:10.186Z,17.17
2022-09-21T05:30:12.550Z,18.13
2022-09-21T05:35:38.070Z,18.40
2022-09-21T05:40:40.024Z,15.82
2022-09-21T05:45:47.790Z,17.13
2022-09-21T05:50:55.277Z,15.70
2022-09-21T05:55:58.175Z,18.13
2022-09-21T06:01:12.129Z,15.40
2022-09-21T06:06:13.952Z,13.98
2022-09-21T06:11:16.595Z,13.23
2022-09-21T06:16:18.248Z,15.90
2022-09-21T06:21:19.866Z,14.48
2022-09-21T06:26:21.400Z,15.75
2022-09-21T06:31:23.087Z,14.73
2022-09-21T06:36:24.692Z,18.00
2022-09-21T06:41:26.349Z,17.35
2022-09-21T06:46:27.875Z,15.68
2022-09-21T06:51:29.487Z,17.83
2022-09-21T06:56:31.008Z,16.80
2022-09-21T07:01:32.757Z,16.50
2022-09-21T07:06:34.740Z,15.77
2022-09-21T07:11:36.262Z,18.48
2022-09-21T07:16:37.858Z,16.17
2022-09-21T07:21:39.727Z,15.93
2022-09-21T07:26:41.346Z,12.88
2022-09-21T07:31:44.462Z,11.55
2022-09-21T07:36:46.019Z,12.02
2022-09-21T07:41:47.630Z,11.88
2022-09-21T07:46:49.673Z,12.02
2022-09-21T07:51:51.212Z,10.55
2022-09-21T07:56:52.853Z,12.60
2022-09-21T08:01:54.409Z,11.05
2022-09-21T08:06:56.248Z,11.85
2022-09-21T08:11:57.809Z,10.63
2022-09-21T08:16:59.416Z,12.02
2022-09-21T08:22:01.038Z,11.15
2022-09-21T08:27:02.693Z,11.13
2022-09-21T08:32:04.531Z,10.55
2022-09-21T08:37:06.679Z,10.38
2022-09-21T08:42:08.164Z,9.48
2022-09-21T08:47:14.143Z,9.02
2022-09-21T08:52:19.282Z,9.60
2022-09-21T08:57:25.788Z,9.90
2022-09-21T09:02:54.555Z,10.82
2022-09-21T09:08:18.466Z,8.05
2022-09-21T09:13:57.587Z,7.97
2022-09-21T09:19:37.695Z,8.43
2022-09-21T09:24:48.913Z,8.00
2022-09-21T09:30:03.943Z,8.30
2022-09-21T09:35:44.672Z,7.70
2022-09-21T09:41:10.895Z,7.25
2022-09-21T09:46:31.263Z,6.30
2022-09-21T09:51:33.031Z,6.25
2022-09-21T09:56:34.534Z,6.65
2022-09-21T10:01:44.338Z,6.28
2022-09-21T10:06:47.012Z,6.05
2022-09-21T10:11:49.372Z,4.72
2022-09-21T10:16:52.603Z,3.45
2022-09-21T10:22:02.408Z,3.28
2022-09-21T10:27:12.652Z,3.10
2022-09-21T10:32:15.042Z,2.70
2022-09-21T10:37:32.267Z,1.80
2022-09-21T10:42:42.544Z,1.58
2022-09-21T10:47:48.351Z,1.70
2022-09-21T10:52:51.577Z,2.38
2022-09-21T10:57:53.674Z,1.65
2022-09-21T11:02:56.466Z,1.30
2022-09-21T11:08:20.047Z,1.27
2022-09-21T11:14:00.142Z,1.35
2022-09-21T11:19:21.932Z,1.67
2022-09-21T11:24:49.253Z,1.55
2022-09-21T11:29:58.275Z,1.45
2022-09-21T11:35:26.120Z,1.30
2022-09-21T11:40:35.136Z,1.55
2022-09-21T11:45:59.686Z,1.20
2022-09-21T11:51:23.012Z,0.90
2022-09-21T11:56:33.898Z,0.90
2022-09-21T12:02:06.467Z,0.70
2022-09-21T12:07:17.282Z,0.85
2022-09-21T12:12:52.760Z,0.60
2022-09-21T12:18:19.624Z,0.68
2022-09-21T12:23:39.062Z,0.95
2022-09-21T12:28:49.271Z,1.15
2022-09-21T12:33:58.098Z,1.00
2022-09-21T12:39:29.188Z,0.60
2022-09-21T12:44:45.995Z,0.82
2022-09-21T12:49:48.927Z,0.95
2022-09-21T12:55:04.272Z,0.52
2022-09-21T13:05:35.724Z,0.57
2022-09-21T13:10:55.664Z,0.82
2022-09-21T13:15:57.902Z,0.70
2022-09-21T13:21:00.238Z,0.52
2022-09-21T13:26:36.217Z,0.60
2022-09-21T13:31:58.773Z,0.73
2022-09-21T13:37:09.609Z,0.70
2022-09-21T13:42:29.567Z,0.60
2022-09-21T13:47:36.874Z,0.77
2022-09-21T13:52:45.247Z,0.60
2022-09-21T13:57:50.068Z,0.60
2022-09-21T14:02:51.866Z,0.77
2022-09-21T14:08:01.384Z,0.93
2022-09-21T14:13:22.275Z,0.80
2022-09-21T14:18:37.724Z,0.63
2022-09-21T14:23:39.931Z,0.50
2022-09-21T14:28:50.674Z,0.40
2022-09-21T14:33:55.597Z,0.57
2022-09-21T14:39:00.841Z,0.70
2022-09-21T14:44:02.755Z,0.70
2022-09-21T14:49:10.649Z,0.85
2022-09-21T14:54:39.608Z,0.45
2022-09-21T15:00:12.338Z,0.50
2022-09-21T15:05:19.552Z,0.50
2022-09-21T15:10:24.167Z,0.52
2022-09-21T15:15:37.761Z,0.40
2022-09-21T15:20:39.447Z,0.68
2022-09-21T15:25:41.091Z,0.88
2022-09-21T15:30:43.458Z,0.45
2022-09-21T15:35:46.749Z,0.75
2022-09-21T15:40:50.002Z,0.60
2022-09-21T15:46:03.384Z,0.70
2022-09-21T15:51:15.213Z,0.60
2022-09-21T15:56:24.470Z,0.70
2022-09-21T16:01:27.049Z,0.60
2022-09-21T16:06:36.824Z,0.65
2022-09-21T16:11:38.400Z,0.80
2022-09-21T16:17:08.901Z,0.80
2022-09-21T16:22:15.880Z,0.60
2022-09-21T16:27:20.411Z,0.50
2022-09-21T16:32:31.093Z,0.80
2022-09-21T16:37:32.786Z,0.88
2022-09-21T16:42:34.338Z,0.60
2022-09-21T16:47:37.726Z,0.90
2022-09-21T16:52:39.378Z,0.60
2022-09-21T16:57:41.580Z,0.50
2022-09-21T17:02:43.903Z,0.80
2022-09-21T17:07:56.615Z,0.65
2022-09-21T17:12:58.343Z,0.75
2022-09-21T17:18:00.288Z,2.03
2022-09-21T17:23:02.397Z,0.70
2022-09-21T17:28:14.365Z,0.80
2022-09-21T17:33:15.873Z,0.80
2022-09-21T17:38:17.537Z,0.80
2022-09-21T17:43:38.667Z,1.30
2022-09-21T17:48:40.637Z,4.03
2022-09-21T17:53:42.430Z,1.50
2022-09-21T17:58:50.068Z,3.88
2022-09-21T18:03:52.145Z,2.28
2022-09-21T18:08:54.090Z,2.50
2022-09-21T18:14:10.843Z,2.60
2022-09-21T18:19:30.899Z,2.47
2022-09-21T18:24:32.643Z,1.92
2022-09-21T18:29:42.161Z,1.83
2022-09-21T18:35:02.438Z,2.10
2022-09-21T18:40:19.735Z,2.67
2022-09-21T18:45:27.016Z,2.67
2022-09-21T18:51:07.025Z,3.15
2022-09-21T18:56:08.943Z,3.28
2022-09-21T19:01:12.511Z,2.88
2022-09-21T19:06:45.709Z,3.20
2022-09-21T19:12:11.220Z,4.30
2022-09-21T19:17:21.778Z,3.22
2022-09-21T19:22:29.781Z,2.65
2022-09-21T19:27:37.778Z,3.13
2022-09-21T19:32:46.678Z,2.30
2022-09-21T19:37:49.640Z,2.45
2022-09-21T19:43:20.001Z,2.08
2022-09-21T19:48:27.327Z,2.50
2022-09-21T19:53:30.316Z,2.40
2022-09-21T19:58:32.232Z,2.40
2022-09-21T20:03:39.342Z,2.72
2022-09-21T20:08:55.171Z,2.50
2022-09-21T20:14:05.078Z,2.67
2022-09-21T20:19:25.156Z,2.13
2022-09-21T20:24:48.501Z,2.20
2022-09-21T20:29:50.025Z,3.05
2022-09-21T20:34:51.604Z,2.70
2022-09-21T20:39:53.835Z,2.20
2022-09-21T20:44:55.440Z,3.00
2022-09-21T20:49:57.009Z,2.67
2022-09-21T20:54:58.520Z,2.20
2022-09-21T21:00:00.233Z,2.40
2022-09-21T21:05:02.123Z,2.60
2022-09-21T21:10:04.258Z,2.30
2022-09-21T21:15:06.590Z,2.17
2022-09-21T21:20:09.221Z,2.85
2022-09-21T21:25:10.892Z,2.53
2022-09-21T21:30:12.933Z,2.85
2022-09-21T21:35:14.594Z,2.35
2022-09-21T21:40:16.304Z,2.35
2022-09-21T21:45:17.894Z,3.10
2022-09-21T21:50:19.375Z,2.22
2022-09-21T21:55:20.941Z,2.95
2022-09-21T22:00:22.524Z,3.13
2022-09-21T22:05:24.085Z,4.50
2022-09-21T22:10:25.625Z,3.72
2022-09-21T22:15:27.123Z,3.33
2022-09-21T22:20:28.676Z,3.95
2022-09-21T22:25:30.183Z,4.07
2022-09-21T22:30:31.827Z,4.07
2022-09-21T22:35:33.295Z,4.95
2022-09-21T22:40:34.909Z,4.53
2022-09-21T22:45:36.527Z,4.85
2022-09-21T22:50:38.037Z,5.10
2022-09-21T22:55:39.528Z,4.38
2022-09-21T23:00:41.237Z,5.00
2022-09-21T23:05:42.776Z,4.70
2022-09-21T23:10:44.242Z,5.00
2022-09-21T23:15:45.800Z,4.70
2022-09-21T23:20:59.006Z,5.25
2022-09-21T23:26:20.842Z,5.20
2022-09-21T23:31:23.476Z,4.43
2022-09-21T23:36:28.006Z,4.88
2022-09-21T23:41:33.135Z,4.68
2022-09-21T23:46:36.547Z,4.32
2022-09-21T23:51:38.540Z,4.78
2022-09-21T23:56:40.129Z,4.43
